Latest Weather Observations for Middle Point

IDD60901

Issued at 12:11 pm CST Wednesday 4 March 2015 (issued every 10 minutes, with the page automatically refreshed every 10 minutes)

About weather observations | Map of Darwin area stations | Latest observations for Darwin area | Other Formats
Station Details ID: 014041 Name: MIDDLE POINT Lat: -12.61 Lon: 131.30 Height: 14.1 m
Data from the previous 72 hours. | See also: Recent months at Middle Point
Date/Time
CST
Tmp

°C
App
Tmp
°C
Dew
Point
°C
Rel
Hum
%
Delta-T

°C
Wind Press
QNH
hPa
Press
MSL
hPa
Rain
since
9 am
mm
Dir
 
Spd
km/h
Gust
km/h
Spd
kts
Gust
kts
04/12:00pm 32.1 36.0 22.5 57 6.6 NNE 6 13 3 7 1008.3 1008.2 0.0
04/11:30am 32.1 37.0 24.4 63 5.4 NNW 6 9 3 5 1008.5 1008.4 0.0
04/11:00am 31.1 36.0 23.7 64 5.1 SSE 4 7 2 4 1008.8 1008.7 0.0
04/10:30am 30.6 35.9 24.3 69 4.4 ENE 4 9 2 5 1009.1 1009.0 0.0
04/10:00am 29.2 34.2 24.5 76 3.3 ENE 6 7 3 4 1009.1 1009.0 0.0
04/09:30am 28.4 34.9 25.0 82 2.4 CALM 0 2 0 1 1008.9 1008.8 0.0
04/09:00am 27.9 33.5 24.9 84 2.1 ENE 4 6 2 3 1008.6 1008.5 4.2
04/08:30am 27.4 33.9 25.0 87 1.7 CALM 0 2 0 1 1008.3 1008.2 4.2
04/08:00am 26.4 32.2 25.2 93 0.8 SSE 4 6 2 3 1008.2 1008.1 4.2
04/07:30am 25.8 32.0 24.6 93 0.8 CALM 0 2 0 1 1007.9 1007.8 4.2
04/07:00am 25.1 30.1 23.9 93 0.8 E 4 6 2 3 1007.5 1007.4 4.2
04/06:30am 24.9 30.5 23.5 92 1.0 CALM 0 0 0 0 1006.9 1006.8 4.2
04/06:00am 25.0 30.2 23.6 92 1.0 E 2 2 1 1 1006.7 1006.6 4.2
04/05:30am 25.5 30.4 24.3 93 0.8 ESE 6 7 3 4 1006.7 1006.6 4.2
04/05:00am 25.6 30.5 24.4 93 0.8 E 6 7 3 4 1006.3 1006.2 4.2
04/04:30am 25.4 30.1 24.0 92 1.0 E 6 6 3 3 1005.9 1005.8 4.2
04/04:00am 25.6 31.6 24.2 92 1.0 CALM 0 4 0 2 1005.8 1005.7 4.2
04/03:30am 25.6 31.6 24.2 92 1.0 CALM 0 0 0 0 1006.2 1006.1 4.2
04/03:00am 25.4 31.2 24.0 92 1.0 CALM 0 2 0 1 1006.4 1006.3 4.2
04/02:30am 25.4 30.1 24.0 92 1.0 E 6 7 3 4 1006.5 1006.4 4.2
04/02:00am 25.5 31.0 24.1 92 1.0 E 2 2 1 1 1006.6 1006.5 4.2
04/01:30am 25.3 30.6 23.7 91 1.1 ESE 2 6 1 3 1006.8 1006.7 4.2
04/01:00am 25.5 31.3 23.9 91 1.1 CALM 0 0 0 0 1007.0 1006.9 4.2
04/12:30am 25.3 29.8 23.7 91 1.1 ENE 6 7 3 4 1007.2 1007.1 4.2
04/12:00am 25.3 29.5 23.5 90 1.2 ENE 7 9 4 5 1007.1 1007.0 4.2
 
Date/Time
CST
Tmp

°C
App
Tmp
°C
Dew
Point
°C
Rel
Hum
%
Delta-T

°C
Wind Press
QNH
hPa
Press
MSL
hPa
Rain
since
9 am
mm
Dir
 
Spd
km/h
Gust
km/h
Spd
kts
Gust
kts
03/11:30pm 25.3 29.7 23.4 89 1.3 ENE 6 7 3 4 1007.3 1007.2 4.2
03/11:00pm 25.7 29.6 23.6 88 1.4 ENE 9 13 5 7 1007.5 1007.4 4.2
03/10:30pm 25.9 29.8 23.6 87 1.6 NE 9 13 5 7 1007.3 1007.2 4.2
03/10:00pm 26.1 30.2 24.0 88 1.4 NNE 9 15 5 8 1007.1 1007.0 4.2
03/09:30pm 26.1 30.3 24.1 89 1.4 ENE 9 13 5 7 1006.8 1006.7 4.2
03/09:00pm 26.3 30.2 24.2 88 1.5 ENE 11 15 6 8 1006.6 1006.5 4.2
03/08:30pm 27.1 30.1 24.6 86 1.7 E 17 20 9 11 1006.2 1006.1 4.2
03/08:00pm 27.4 32.0 24.8 86 1.8 ENE 9 13 5 7 1006.2 1006.1 4.2
03/07:30pm 27.7 32.5 25.1 86 1.8 ENE 9 13 5 7 1006.0 1005.9 4.2
03/07:00pm 28.1 32.7 24.7 82 2.4 NE 9 13 5 7 1005.3 1005.2 4.2
03/06:30pm 28.5 33.1 24.7 80 2.7 NNE 9 13 5 7 1004.9 1004.8 4.2
03/06:00pm 28.6 31.8 24.4 78 2.9 NNE 15 22 8 12 1004.6 1004.5 4.2
03/05:30pm 30.3 32.7 24.2 70 4.3 NNE 19 24 10 13 1004.3 1004.2 4.2
03/05:00pm 30.5 32.9 24.2 69 4.4 NNE 19 26 10 14 1004.1 1004.0 4.2
03/04:30pm 30.8 32.7 23.7 66 4.9 NNE 20 26 11 14 1004.0 1003.9 4.2
03/04:00pm 30.7 32.6 24.4 69 4.4 NNE 22 28 12 15 1004.1 1004.0 4.2
03/03:30pm 30.9 33.7 25.0 71 4.2 NNE 19 28 10 15 1004.1 1004.0 4.2
03/03:00pm 29.8 34.5 25.5 78 3.0 NNE 11 17 6 9 1004.5 1004.4 4.2
03/02:30pm 27.5 33.0 24.7 85 2.0 ESE 4 7 2 4 1005.3 1005.2 4.0
03/02:00pm 26.0 28.9 23.9 88 1.4 N 15 22 8 12 1005.7 1005.6 4.0
03/01:30pm 26.0 26.9 23.3 85 1.8 NNE 24 35 13 19 1006.1 1006.0 2.6
03/01:00pm 30.1 34.0 25.4 76 3.3 ENE 15 22 8 12 1006.1 1006.0 0.4
03/12:30pm 28.7 32.6 25.5 83 2.3 ENE 15 20 8 11 1006.6 1006.5 0.4
03/12:00pm 27.9 31.3 25.3 86 1.8 NNE 17 22 9 12 1006.8 1006.7 0.4
03/11:30am 27.9 32.8 24.7 83 2.2 NNE 7 15 4 8 1006.7 1006.6 0.2
03/11:00am 28.8 31.9 24.1 76 3.3 ENE 15 20 8 11 1007.0 1006.9 0.0
03/10:30am 29.0 32.6 24.3 76 3.3 ENE 13 22 7 12 1007.1 1007.0 0.0
03/10:00am 29.1 32.5 24.7 77 3.1 E 15 20 8 11 1006.9 1006.8 0.0
03/09:30am 28.3 32.2 24.9 82 2.4 ESE 13 19 7 10 1006.7 1006.6 0.0
03/09:00am 27.2 31.4 24.7 86 1.7 E 11 15 6 8 1006.6 1006.5 21.4
03/08:30am 26.8 31.3 24.6 88 1.5 ESE 9 15 5 8 1005.9 1005.8 21.4
03/08:00am 25.7 29.8 23.9 90 1.2 SE 9 15 5 8 1005.6 1005.5 21.4
03/07:30am 25.0 29.9 23.6 92 1.0 SE 4 7 2 4 1005.2 1005.1 21.4
03/07:00am 24.6 28.8 23.4 93 0.8 SE 7 11 4 6 1004.8 1004.7 21.4
03/06:30am 24.8 29.1 23.6 93 0.8 SE 7 9 4 5 1004.5 1004.4 21.4
03/06:00am 24.7 29.5 23.5 93 0.8 ESE 4 6 2 3 1004.3 1004.2 21.4
03/05:30am 24.7 28.9 23.5 93 0.8 SE 7 11 4 6 1004.0 1003.9 21.4
03/05:00am 24.7 28.8 23.3 92 1.0 SE 7 9 4 5 1003.6 1003.5 21.4
03/04:30am 24.8 28.7 23.6 93 0.8 SSE 9 13 5 7 1003.8 1003.7 21.4
03/04:00am 24.8 29.1 23.6 93 0.8 SSE 7 11 4 6 1003.7 1003.6 21.4
03/03:30am 24.8 29.1 23.6 93 0.8 SSE 7 9 4 5 1004.2 1004.1 21.4
03/03:00am 24.6 29.3 23.4 93 0.8 S 4 6 2 3 1004.4 1004.3 21.4
03/02:30am 24.2 29.5 23.0 93 0.8 CALM 0 0 0 0 1004.4 1004.3 21.4
03/02:00am 24.1 28.9 22.9 93 0.8 SSW 2 2 1 1 1004.7 1004.6 21.4
03/01:30am 24.3 29.2 23.1 93 0.8 SSW 2 2 1 1 1004.8 1004.7 21.4
03/01:00am 24.5 29.6 23.3 93 0.8 SSW 2 6 1 3 1004.8 1004.7 21.4
03/12:30am 24.5 28.8 23.3 93 0.8 S 6 7 3 4 1005.2 1005.1 21.4
03/12:00am 24.4 29.4 23.2 93 0.8 SW 2 4 1 2 1005.7 1005.6 21.2
 
Date/Time
CST
Tmp

°C
App
Tmp
°C
Dew
Point
°C
Rel
Hum
%
Delta-T

°C
Wind Press
QNH
hPa
Press
MSL
hPa
Rain
since
9 am
mm
Dir
 
Spd
km/h
Gust
km/h
Spd
kts
Gust
kts
02/11:30pm 24.6 29.3 23.4 93 0.8 WSW 4 6 2 3 1005.9 1005.8 21.2
02/11:00pm 24.5 28.8 23.3 93 0.8 WSW 6 7 3 4 1005.9 1005.8 21.2
02/10:30pm 24.5 28.6 23.3 93 0.8 S 7 11 4 6 1006.0 1005.9 19.0
02/10:00pm 24.4 28.5 23.2 93 0.8 WSW 7 9 4 5 1005.5 1005.4 18.4
02/09:30pm 24.3 28.3 23.1 93 0.8 WSW 7 9 4 5 1005.4 1005.3 18.4
02/09:00pm 24.3 28.9 23.1 93 0.8 SW 4 6 2 3 1005.2 1005.1 18.2
02/08:30pm 24.1 28.9 22.9 93 0.8 NNW 2 4 1 2 1005.1 1005.0 18.2
02/08:00pm 24.0 27.9 22.6 92 0.9 NW 6 9 3 5 1004.7 1004.6 18.0
02/07:30pm 24.6 29.1 23.0 91 1.1 SW 4 13 2 7 1004.9 1004.8 11.4
02/07:00pm 24.9 29.5 23.1 90 1.2 WSW 4 15 2 8 1004.5 1004.4 3.0
02/06:30pm 24.8 27.1 22.7 88 1.4 WNW 15 22 8 12 1002.8 1002.7 3.0
02/06:00pm 25.0 28.0 23.4 91 1.1 NW 13 19 7 10 1002.9 1002.8 3.0
02/05:30pm 24.9 26.7 23.3 91 1.1 NW 19 26 10 14 1002.9 1002.8 3.0
02/05:00pm 25.1 26.9 23.3 90 1.2 NW 19 28 10 15 1002.8 1002.7 2.4
02/04:30pm 25.4 29.0 23.8 91 1.1 N 11 17 6 9 1003.3 1003.2 1.0
02/04:00pm 25.3 28.0 23.5 90 1.2 NW 15 22 8 12 1002.9 1002.8 0.2
02/03:30pm 25.5 27.2 23.0 86 1.7 NW 19 26 10 14 1003.0 1002.9 0.2
02/03:00pm 26.8 29.0 23.3 81 2.4 NW 17 22 9 12 1003.2 1003.1 0.2
02/02:30pm 28.2 30.8 23.3 75 3.4 NW 15 22 8 12 1003.3 1003.2 0.2
02/02:00pm 31.0 36.0 25.4 72 4.0 S 9 15 5 8 1003.5 1003.4 0.2
02/01:30pm 30.3 35.3 25.4 75 3.5 SSE 9 15 5 8 1004.2 1004.1 0.2
02/01:00pm 30.9 36.3 25.5 73 3.8 SW 7 11 4 6 1004.6 1004.5 0.2
02/12:30pm 29.9 35.7 26.1 80 2.7 S 7 13 4 7 1005.1 1005.0 0.0
02/12:00pm 29.1 34.9 25.7 82 2.4 S 6 11 3 6 1005.7 1005.6 0.0
02/11:30am 29.0 34.9 25.4 81 2.5 S 4 7 2 4 1006.3 1006.2 0.0
02/11:00am 28.6 34.4 25.8 85 2.0 SSE 6 9 3 5 1006.2 1006.1 0.0
02/10:30am 28.0 33.6 25.8 88 1.6 SSE 7 9 4 5 1006.4 1006.3 0.0
02/10:00am 27.6 33.1 25.6 89 1.4 ESE 7 9 4 5 1007.0 1006.9 0.0
02/09:30am 27.2 31.8 25.4 90 1.3 ESE 11 13 6 7 1006.9 1006.8 0.0
02/09:00am 27.0 32.4 25.2 90 1.3 SE 6 7 3 4 1007.0 1006.9 3.0
02/08:30am 26.7 32.6 25.3 92 1.0 SE 4 6 2 3 1006.5 1006.4 3.0
02/08:00am 26.4 31.7 25.2 93 0.8 SE 7 9 4 5 1006.1 1006.0 3.0
02/07:30am 26.5 31.8 25.3 93 0.8 ESE 7 9 4 5 1006.0 1005.9 3.0
02/07:00am 26.5 32.0 25.3 93 0.8 E 6 7 3 4 1005.7 1005.6 3.0
02/06:30am 26.3 31.9 24.9 92 1.0 SSE 4 4 2 2 1005.3 1005.2 3.0
02/06:00am 26.3 32.7 24.9 92 1.0 CALM 0 0 0 0 1004.9 1004.8 3.0
02/05:30am 26.2 32.7 25.0 93 0.8 CALM 0 0 0 0 1004.7 1004.6 3.0
02/05:00am 26.2 31.5 25.0 93 0.8 NE 6 6 3 3 1004.7 1004.6 3.0
02/04:30am 26.1 31.6 24.7 92 1.0 NNE 4 4 2 2 1004.4 1004.3 3.0
02/04:00am 26.3 32.3 24.9 92 1.0 SE 2 2 1 1 1004.3 1004.2 3.0
02/03:30am 26.3 32.1 25.1 93 0.8 SSW 4 6 2 3 1004.3 1004.2 3.0
02/03:00am 26.1 31.2 24.7 92 1.0 W 6 6 3 3 1004.2 1004.1 3.0
02/02:30am 26.2 31.8 24.8 92 1.0 SW 4 4 2 2 1004.8 1004.7 3.0
02/02:00am 26.2 32.5 24.8 92 1.0 CALM 0 2 0 1 1005.2 1005.1 3.0
02/01:30am 26.6 32.8 25.2 92 1.0 SW 2 2 1 1 1005.8 1005.7 3.0
02/01:00am 26.6 32.7 25.0 91 1.1 SSW 2 6 1 3 1006.3 1006.2 3.0
02/12:30am 26.9 32.8 25.3 91 1.1 S 4 7 2 4 1006.9 1006.8 3.0
02/12:00am 26.9 32.2 25.3 91 1.1 S 7 9 4 5 1006.9 1006.8 3.0
 
Date/Time
CST
Tmp

°C
App
Tmp
°C
Dew
Point
°C
Rel
Hum
%
Delta-T

°C
Wind Press
QNH
hPa
Press
MSL
hPa
Rain
since
9 am
mm
Dir
 
Spd
km/h
Gust
km/h
Spd
kts
Gust
kts
01/11:30pm 26.6 32.3 25.0 91 1.1 SW 4 6 2 3 1006.7 1006.6 3.0
01/11:00pm 26.3 31.4 24.7 91 1.1 W 6 6 3 3 1006.8 1006.7 3.0
01/10:30pm 26.4 31.5 24.6 90 1.3 NW 6 6 3 3 1006.8 1006.7 3.0
01/10:00pm 26.8 32.1 25.0 90 1.3 NW 6 7 3 4 1006.7 1006.6 3.0
01/09:30pm 26.9 32.1 25.1 90 1.3 NNW 7 9 4 5 1007.1 1007.0 2.8
01/09:00pm 27.1 32.3 25.1 89 1.4 NE 7 9 4 5 1007.1 1007.0 2.0
01/08:30pm 28.0 34.5 25.0 84 2.1 CALM 0 0 0 0 1006.6 1006.5 0.2
01/08:00pm 28.0 32.9 24.4 81 2.5 WSW 6 7 3 4 1005.7 1005.6 0.2
01/07:30pm 28.3 32.5 24.1 78 2.9 NW 9 15 5 8 1005.0 1004.9 0.2
01/07:00pm 28.8 32.7 24.8 79 2.8 W 13 17 7 9 1004.6 1004.5 0.2
01/06:30pm 29.2 33.4 25.4 80 2.7 W 13 20 7 11 1004.7 1004.6 0.2
01/06:00pm 29.5 32.6 24.8 76 3.3 WNW 17 24 9 13 1003.6 1003.5 0.2
01/05:30pm 30.3 32.5 24.0 69 4.4 WNW 19 26 10 14 1003.2 1003.1 0.2
01/05:00pm 30.3 32.5 24.0 69 4.4 WNW 19 24 10 13 1003.2 1003.1 0.2
01/04:30pm 30.5 32.1 23.9 68 4.6 WNW 22 28 12 15 1003.3 1003.2 0.2
01/04:00pm 31.2 34.3 24.1 66 4.9 NW 15 22 8 12 1003.2 1003.1 0.2
01/03:30pm 31.6 34.1 24.7 67 4.9 NW 20 32 11 17 1003.4 1003.3 0.2
01/03:00pm 30.3 32.2 23.5 67 4.7 W 19 32 10 17 1004.0 1003.9 0.2
01/02:30pm 31.6 34.5 24.5 66 5.0 NNW 17 28 9 15 1003.8 1003.7 0.2
01/02:00pm 32.7 37.0 25.5 66 5.1 WNW 13 17 7 9 1004.5 1004.4 0.2
01/01:30pm 32.6 37.0 24.4 62 5.8 W 9 15 5 8 1005.0 1004.9 0.2
01/01:00pm 34.4 40.4 26.3 62 5.8 NNW 7 17 4 9 1005.5 1005.4 0.2
01/12:30pm 32.5 36.9 24.5 62 5.6 WNW 9 15 5 8 1006.3 1006.2 0.2

Latest Capital City Observations: Canberra | Sydney | Melbourne | Brisbane | Adelaide | Perth | Hobart | Darwin

Other Formats:

Comma delimited format used in spreadsheet applications
http://www.bom.gov.au/fwo/IDD60901/IDD60901.95121.axf

JavaScript Object Notation format (JSON) in row-major order
http://www.bom.gov.au/fwo/IDD60901/IDD60901.95121.json